Time;durP1;ratioP1;P1;durP2;ratioP2;P2;SDS_P1;SDS_P2;PMS_P1;PMS_P2;Temp;Humidity;BMP_temperature;BMP_pressure;BME280_temperature;BME280_humidity;BME280_pressure;Samples;Min_cycle;Max_cycle;Signal;HPM_P1;HPM_P2
2021/10/03 00:00:31;;;;;;;27.67;16.90;;;;;;;6.08;72.95;100819.48;1739421;82;21001;-65
2021/10/03 00:02:58;;;;;;;28.65;16.02;;;;;;;6.10;72.77;100823.30;1740087;81;21596;-65
2021/10/03 00:05:25;;;;;;;23.32;16.62;;;;;;;6.03;72.90;100826.05;1717673;82;21023;-65
2021/10/03 00:07:55;;;;;;;30.82;18.37;;;;;;;5.96;73.31;100822.03;1730747;83;21122;-64
2021/10/03 00:10:23;;;;;;;26.65;16.95;;;;;;;5.91;73.54;100819.68;1737256;82;21035;-65
2021/10/03 00:12:50;;;;;;;26.85;17.23;;;;;;;5.92;73.50;100819.45;1725044;82;21553;-66
2021/10/03 00:15:18;;;;;;;25.70;16.65;;;;;;;6.00;73.33;100817.02;1713684;82;21043;-66
2021/10/03 00:17:45;;;;;;;26.60;17.15;;;;;;;5.98;73.39;100815.07;1711966;83;21067;-65
2021/10/03 00:20:13;;;;;;;25.08;17.60;;;;;;;5.92;73.66;100818.61;1697766;83;21070;-64
2021/10/03 00:22:40;;;;;;;27.50;17.32;;;;;;;5.86;73.96;100827.07;1718010;82;21481;-65
2021/10/03 00:25:08;;;;;;;27.87;16.87;;;;;;;5.80;74.19;100825.20;1702745;83;21051;-65
2021/10/03 00:27:36;;;;;;;24.30;17.37;;;;;;;5.80;74.26;100823.02;1709298;82;20980;-65
2021/10/03 00:30:04;;;;;;;26.97;18.50;;;;;;;5.83;74.09;100825.29;1715030;83;21487;-65
2021/10/03 00:32:31;;;;;;;28.00;18.27;;;;;;;5.87;73.93;100818.45;1715940;81;20991;-66
2021/10/03 00:34:57;;;;;;;25.37;16.67;;;;;;;5.85;73.82;100824.54;1718097;82;21047;-65
2021/10/03 00:37:24;;;;;;;31.45;19.35;;;;;;;5.78;73.75;100821.03;1717809;81;21069;-66
2021/10/03 00:39:50;;;;;;;31.07;18.42;;;;;;;5.69;73.60;100825.03;1702261;82;21100;-66
2021/10/03 00:42:17;;;;;;;24.87;17.37;;;;;;;5.58;73.55;100821.13;1707553;83;21062;-65
2021/10/03 00:44:43;;;;;;;28.40;17.62;;;;;;;5.52;73.44;100824.69;1721480;82;21047;-66
2021/10/03 00:47:10;;;;;;;24.82;17.15;;;;;;;5.53;73.23;100823.10;1699342;83;21051;-65
2021/10/03 00:49:36;;;;;;;;;;;;;;;5.55;73.08;100827.47;1694495;83;21102;-66
2021/10/03 00:52:05;;;;;;;24.75;16.37;;;;;;;5.49;73.09;100826.46;1705834;83;20152;-66
2021/10/03 00:54:33;;;;;;;25.27;16.62;;;;;;;5.33;73.34;100825.55;1711541;82;21067;-66
2021/10/03 00:57:00;;;;;;;25.68;17.50;;;;;;;5.25;73.35;100821.20;1720113;83;21000;-65
2021/10/03 00:59:27;;;;;;;29.07;18.48;;;;;;;5.18;73.33;100815.50;1715619;83;21558;-64
2021/10/03 01:01:53;;;;;;;25.05;17.27;;;;;;;5.18;73.24;100813.64;1713482;83;21012;-65
2021/10/03 01:04:20;;;;;;;27.10;16.80;;;;;;;5.23;72.95;100817.90;1701347;83;20992;-65
2021/10/03 01:06:46;;;;;;;24.07;16.07;;;;;;;5.21;72.97;100817.27;1720471;82;20969;-64
2021/10/03 01:09:13;;;;;;;25.23;16.42;;;;;;;5.13;73.35;100816.16;1717085;83;21110;-64
2021/10/03 01:11:39;;;;;;;24.45;15.20;;;;;;;5.07;73.61;100815.63;1701445;83;21597;-65
2021/10/03 01:14:05;;;;;;;23.12;16.30;;;;;;;5.02;74.08;100818.14;1704078;83;21083;-65
2021/10/03 01:16:32;;;;;;;24.70;14.73;;;;;;;5.05;74.59;100815.02;1718860;82;21491;-65
2021/10/03 01:18:58;;;;;;;;;;;;;;;5.12;74.56;100812.30;1723539;81;21091;-64
2021/10/03 01:21:25;;;;;;;19.75;12.88;;;;;;;5.13;74.82;100811.27;1694152;83;20429;-65
2021/10/03 01:23:55;;;;;;;23.67;14.23;;;;;;;5.03;75.33;100809.81;1716771;83;21024;-65
2021/10/03 01:26:21;;;;;;;23.05;14.28;;;;;;;5.01;75.45;100813.25;1715022;82;21060;-65
2021/10/03 01:29:33;;;;;;;23.15;14.78;;;;;;;5.03;75.47;100805.48;1751996;79;22722;-65
2021/10/03 01:31:59;;;;;;;23.10;14.47;;;;;;;5.01;75.34;100805.67;1733046;82;21572;-66
2021/10/03 01:34:26;;;;;;;22.27;14.68;;;;;;;5.07;75.05;100805.34;1742793;82;21078;-66
2021/10/03 01:36:52;;;;;;;21.37;14.00;;;;;;;5.09;74.82;100806.81;1730058;82;21042;-66
2021/10/03 01:39:19;;;;;;;19.35;12.82;;;;;;;5.07;74.67;100814.27;1748802;82;21102;-65
2021/10/03 01:41:45;;;;;;;19.80;13.30;;;;;;;4.89;74.61;100810.87;1736391;82;21003;-65
2021/10/03 01:44:11;;;;;;;19.85;14.43;;;;;;;4.89;74.61;100810.87;1732163;82;21031;-66
2021/10/03 01:46:38;;;;;;;20.95;14.50;;;;;;;4.81;74.73;100803.52;1726859;82;20974;-66
2021/10/03 01:49:04;;;;;;;21.77;14.60;;;;;;;4.79;74.64;100810.98;1740814;82;21027;-66
2021/10/03 01:51:31;;;;;;;21.90;14.87;;;;;;;4.82;74.36;100813.25;1752936;82;21031;-66
2021/10/03 01:53:58;;;;;;;18.60;13.38;;;;;;;4.82;74.06;100804.64;1730315;82;21057;-65
2021/10/03 01:56:25;;;;;;;23.77;14.10;;;;;;;4.80;74.00;100801.85;1743307;82;20991;-63
2021/10/03 01:58:55;;;;;;;17.92;12.53;;;;;;;4.73;74.26;100805.08;1738409;81;21007;-64
2021/10/03 02:01:31;;;;;;;19.32;13.20;;;;;;;4.67;74.70;100800.52;1734350;82;20967;-65
2021/10/03 02:03:57;;;;;;;21.75;14.07;;;;;;;4.60;75.09;100811.31;1749232;82;21053;-65
2021/10/03 02:06:25;;;;;;;19.82;14.15;;;;;;;4.61;75.33;100804.02;1742871;82;20999;-64
2021/10/03 02:08:56;;;;;;;17.73;13.00;;;;;;;4.66;75.06;100809.64;1723094;82;21062;-65
2021/10/03 02:11:24;;;;;;;18.70;13.13;;;;;;;4.68;74.82;100811.08;1732001;82;20935;-64
2021/10/03 02:13:50;;;;;;;17.30;12.68;;;;;;;4.65;74.84;100809.31;1749674;82;21007;-65
2021/10/03 02:16:17;;;;;;;;;;;;;;;4.60;75.20;100807.27;1735677;82;20947;-65
2021/10/03 02:18:45;;;;;;;23.12;13.03;;;;;;;4.53;75.47;100809.64;1742832;82;20115;-67
2021/10/03 02:21:12;;;;;;;19.57;13.43;;;;;;;4.42;75.86;100810.57;1737058;82;21497;-64
2021/10/03 02:23:38;;;;;;;20.25;13.25;;;;;;;4.44;75.94;100816.57;1721134;82;21050;-63
2021/10/03 02:26:05;;;;;;;;;;;;;;;4.49;75.89;100811.41;1746050;82;21482;-65
2021/10/03 02:28:31;;;;;;;22.05;13.58;;;;;;;4.53;75.77;100819.91;1745209;81;20424;-65
2021/10/03 02:31:02;;;;;;;18.20;13.58;;;;;;;4.50;75.60;100817.60;1732956;82;21070;-65
2021/10/03 02:33:28;;;;;;;18.82;13.72;;;;;;;4.47;75.51;100813.46;1747235;82;21114;-65
2021/10/03 02:35:55;;;;;;;21.33;13.60;;;;;;;4.39;75.63;100812.84;1731966;82;21058;-65
2021/10/03 02:38:23;;;;;;;21.07;13.62;;;;;;;4.29;75.77;100813.73;1735541;82;21600;-65
2021/10/03 02:40:51;;;;;;;20.65;13.30;;;;;;;4.25;75.78;100816.55;1733930;82;21023;-65
2021/10/03 02:43:18;;;;;;;17.82;13.10;;;;;;;4.28;75.60;100815.63;1748800;82;21130;-65
2021/10/03 02:45:49;;;;;;;21.15;13.50;;;;;;;4.26;75.61;100810.11;1752571;82;21521;-64
2021/10/03 02:48:18;;;;;;;20.02;13.38;;;;;;;4.22;75.66;100808.85;1748165;82;21711;-64
2021/10/03 02:50:46;;;;;;;20.40;13.72;;;;;;;4.16;75.67;100805.12;1736832;82;21518;-65
2021/10/03 02:53:15;;;;;;;20.08;13.75;;;;;;;4.18;75.63;100806.28;1740974;81;21926;-63
2021/10/03 02:55:41;;;;;;;19.77;12.88;;;;;;;4.21;75.41;100816.13;1731392;82;21541;-65
2021/10/03 02:58:08;;;;;;;18.32;12.58;;;;;;;4.18;75.35;100820.56;1752911;82;21004;-64
2021/10/03 03:00:35;;;;;;;;;;;;;;;4.12;75.44;100817.34;1731430;82;20983;-64
2021/10/03 03:03:02;;;;;;;16.62;12.35;;;;;;;4.07;75.50;100815.79;1734892;82;20105;-65
2021/10/03 03:05:28;;;;;;;;;;;;;;;3.94;75.61;100816.56;1739661;82;20999;-64
2021/10/03 03:07:55;;;;;;;18.45;12.65;;;;;;;3.97;75.48;100820.70;1738389;82;20109;-64
2021/10/03 03:10:22;;;;;;;21.45;12.78;;;;;;;3.97;75.36;100818.84;1723997;82;21062;-65
2021/10/03 03:12:49;;;;;;;20.25;12.63;;;;;;;4.01;75.35;100809.84;1730444;82;21533;-65
2021/10/03 03:15:15;;;;;;;20.25;13.22;;;;;;;3.99;75.30;100806.02;1730561;82;20975;-65
2021/10/03 03:17:42;;;;;;;20.00;12.73;;;;;;;3.97;75.56;100810.77;1742807;82;21201;-65
2021/10/03 03:20:10;;;;;;;18.02;12.68;;;;;;;3.93;75.75;100809.50;1726426;82;21078;-64
2021/10/03 03:22:36;;;;;;;22.30;14.28;;;;;;;3.88;75.86;100803.91;1737926;82;21350;-65
2021/10/03 03:25:05;;;;;;;21.27;14.55;;;;;;;3.91;75.93;100804.02;1728202;81;21011;-62
2021/10/03 03:27:34;;;;;;;19.70;12.82;;;;;;;3.95;75.79;100808.80;1745655;82;20996;-64
2021/10/03 03:30:00;;;;;;;15.85;12.40;;;;;;;3.97;75.74;100818.84;1732345;82;21063;-64
2021/10/03 03:32:27;;;;;;;19.92;13.70;;;;;;;3.94;75.79;100817.91;1732483;82;21542;-65
2021/10/03 03:34:54;;;;;;;15.80;12.28;;;;;;;3.86;75.98;100822.12;1739389;82;21038;-65
2021/10/03 03:37:20;;;;;;;18.55;12.85;;;;;;;3.77;76.20;100819.30;1735270;82;21030;-65
2021/10/03 03:39:47;;;;;;;19.87;12.82;;;;;;;3.77;76.28;100825.20;1718237;82;21054;-64
2021/10/03 03:42:13;;;;;;;18.27;12.95;;;;;;;3.80;76.11;100819.41;1736667;82;21002;-65
2021/10/03 03:44:39;;;;;;;17.80;12.53;;;;;;;3.83;75.92;100819.84;1734421;82;21019;-65
2021/10/03 03:47:05;;;;;;;20.17;12.70;;;;;;;3.82;75.83;100818.20;1738137;82;21526;-65
2021/10/03 03:49:32;;;;;;;17.45;12.23;;;;;;;3.79;75.92;100825.85;1726505;82;21044;-65
2021/10/03 03:51:58;;;;;;;21.27;13.70;;;;;;;3.74;76.20;100822.41;1728363;82;21478;-64
2021/10/03 03:54:25;;;;;;;20.52;14.78;;;;;;;3.71;76.37;100827.36;1731940;82;21005;-65
2021/10/03 03:56:51;;;;;;;23.45;14.28;;;;;;;3.73;76.77;100831.50;1722782;82;21031;-65
2021/10/03 03:59:17;;;;;;;19.73;13.20;;;;;;;3.80;76.81;100834.22;1734085;82;21059;-65
2021/10/03 04:01:44;;;;;;;16.02;12.63;;;;;;;3.86;76.66;100836.13;1717749;83;21062;-65
2021/10/03 04:04:10;;;;;;;21.93;13.28;;;;;;;3.85;76.56;100835.81;1731933;82;21116;-65
2021/10/03 04:06:37;;;;;;;18.73;13.70;;;;;;;3.79;76.61;100848.74;1723065;82;20987;-66
2021/10/03 04:09:03;;;;;;;20.80;12.58;;;;;;;3.73;76.72;100853.56;1717531;82;21055;-66
2021/10/03 04:11:30;;;;;;;18.40;12.93;;;;;;;3.70;76.65;100849.93;1717844;83;21062;-66
2021/10/03 04:13:56;;;;;;;17.40;13.18;;;;;;;3.72;76.46;100855.97;1744818;82;21694;-66
2021/10/03 04:16:22;;;;;;;18.95;12.75;;;;;;;3.72;76.30;100858.11;1746351;82;20987;-65
2021/10/03 04:18:49;;;;;;;19.02;12.53;;;;;;;3.71;76.28;100856.98;1723548;82;21090;-66
2021/10/03 04:21:15;;;;;;;16.80;12.70;;;;;;;3.65;76.37;100853.75;1742191;82;21493;-66
2021/10/03 04:23:42;;;;;;;19.55;14.55;;;;;;;3.62;76.39;100859.52;1746401;82;21524;-66
2021/10/03 04:26:09;;;;;;;19.82;14.00;;;;;;;3.59;76.41;100850.48;1736153;82;21331;-64
2021/10/03 04:28:35;;;;;;;27.15;18.37;;;;;;;3.61;76.37;100853.33;1721379;82;21028;-66
2021/10/03 04:31:02;;;;;;;26.75;18.73;;;;;;;3.69;76.21;100851.78;1708634;83;20968;-66
2021/10/03 04:33:28;;;;;;;36.53;26.17;;;;;;;3.78;76.38;100863.23;1700341;82;21071;-65
2021/10/03 04:35:54;;;;;;;32.63;23.52;;;;;;;3.80;76.54;100858.47;1716493;82;21482;-65
2021/10/03 04:38:21;;;;;;;;;;;;;;;3.80;76.99;100859.81;1725142;82;21081;-66
2021/10/03 04:40:48;;;;;;;29.12;18.85;;;;;;;3.82;77.43;100853.73;1730696;81;20123;-64
2021/10/03 04:43:14;;;;;;;26.70;18.67;;;;;;;3.78;77.93;100862.72;1726702;82;21020;-63
2021/10/03 04:45:42;;;;;;;27.93;18.12;;;;;;;3.89;78.20;100862.16;1729774;82;21529;-65
2021/10/03 04:48:09;;;;;;;24.55;17.73;;;;;;;4.04;78.14;100859.82;1727480;82;21071;-65
2021/10/03 04:50:35;;;;;;;23.62;16.48;;;;;;;4.16;78.09;100861.72;1726414;82;21015;-65
2021/10/03 04:53:01;;;;;;;;;;;;;;;4.27;78.27;100862.99;1738587;82;21211;-64
2021/10/03 04:55:28;;;;;;;25.15;15.80;;;;;;;4.35;78.41;100866.34;1736829;82;20166;-66
2021/10/03 04:57:55;;;;;;;25.65;16.80;;;;;;;4.39;78.64;100862.72;1719480;82;21099;-66
2021/10/03 05:00:22;;;;;;;26.50;18.30;;;;;;;4.53;78.56;100867.62;1730856;82;21488;-65
2021/10/03 05:02:49;;;;;;;26.50;18.07;;;;;;;4.72;78.29;100866.28;1737564;82;21071;-66
2021/10/03 05:05:15;;;;;;;27.22;17.77;;;;;;;4.92;78.19;100870.35;1738071;82;21099;-66
2021/10/03 05:07:43;;;;;;;27.35;17.10;;;;;;;5.11;78.28;100869.50;1715505;82;21048;-66
2021/10/03 05:10:09;;;;;;;29.98;17.45;;;;;;;5.27;78.29;100870.44;1736937;82;21016;-66
2021/10/03 05:12:37;;;;;;;26.93;16.93;;;;;;;5.46;78.22;100869.55;1718571;82;21517;-66
2021/10/03 05:15:05;;;;;;;28.55;16.87;;;;;;;5.71;78.06;100867.52;1694916;85;21066;-65
2021/10/03 05:17:32;;;;;;;28.45;17.52;;;;;;;6.02;77.67;100867.66;1729144;82;20940;-66
2021/10/03 05:19:58;;;;;;;;;;;;;;;6.27;77.25;100863.14;1740063;82;20995;-65
2021/10/03 05:22:25;;;;;;;25.45;15.80;;;;;;;6.42;76.94;100856.09;1729407;82;20135;-65
2021/10/03 05:24:52;;;;;;;25.68;17.48;;;;;;;6.46;76.82;100863.56;1739126;82;21581;-66
2021/10/03 05:27:19;;;;;;;25.85;17.20;;;;;;;6.63;76.55;100861.67;1736418;82;21039;-65
2021/10/03 05:29:46;;;;;;;24.52;16.23;;;;;;;6.85;76.25;100863.81;1722119;82;21034;-66
2021/10/03 05:32:13;;;;;;;30.37;17.60;;;;;;;7.14;75.90;100862.84;1729206;82;21509;-66
2021/10/03 05:34:39;;;;;;;28.07;17.73;;;;;;;7.41;75.63;100858.30;1738941;82;21055;-68
2021/10/03 05:37:06;;;;;;;26.95;16.70;;;;;;;7.69;75.40;100855.59;1736671;82;21005;-66
2021/10/03 05:39:32;;;;;;;25.95;17.67;;;;;;;7.94;74.78;100859.89;1715143;82;21090;-65
2021/10/03 05:41:59;;;;;;;26.57;17.42;;;;;;;8.24;74.19;100857.22;1726691;82;21094;-66
2021/10/03 05:44:25;;;;;;;29.90;16.93;;;;;;;8.57;73.15;100855.44;1709881;82;21583;-66
2021/10/03 05:46:52;;;;;;;27.73;17.10;;;;;;;8.77;72.18;100863.27;1708026;82;21062;-67
2021/10/03 05:49:18;;;;;;;29.42;16.93;;;;;;;8.94;71.78;100861.52;1720819;82;21514;-66
2021/10/03 05:51:45;;;;;;;28.47;15.78;;;;;;;9.10;71.18;100864.92;1736645;82;21043;-66
2021/10/03 06:01:28;;;;;;;24.47;16.87;;;;;;;9.72;68.04;100865.25;1818461;78;22459;-65
2021/10/03 06:03:53;;;;;;;24.72;16.45;;;;;;;9.77;67.69;100872.17;1772592;80;21069;-66
2021/10/03 06:06:19;;;;;;;24.80;16.42;;;;;;;9.93;67.41;100880.41;1742303;81;21654;-66
2021/10/03 06:08:45;;;;;;;24.27;17.27;;;;;;;10.13;66.26;100873.19;1742155;81;21038;-66
2021/10/03 06:11:12;;;;;;;25.23;15.98;;;;;;;10.28;65.87;100866.73;1761243;81;21069;-67
2021/10/03 06:13:40;;;;;;;25.48;16.70;;;;;;;10.45;65.86;100865.44;1764159;80;21579;-67
2021/10/03 06:16:08;;;;;;;21.02;16.35;;;;;;;10.64;65.41;100867.40;1745352;81;21022;-66
2021/10/03 06:18:35;;;;;;;24.95;17.87;;;;;;;10.85;64.79;100872.13;1735419;81;21082;-65
2021/10/03 06:21:01;;;;;;;27.60;17.40;;;;;;;11.02;64.40;100866.16;1745690;81;21021;-67
2021/10/03 06:23:29;;;;;;;28.30;17.48;;;;;;;11.27;63.35;100867.93;1761178;80;21054;-67
2021/10/03 06:25:56;;;;;;;;;;;;;;;11.44;62.56;100873.39;1763673;81;21007;-67
2021/10/03 06:28:22;;;;;;;27.07;17.77;;;;;;;11.58;62.42;100871.13;1760389;80;20173;-67
2021/10/03 06:30:48;;;;;;;26.40;18.05;;;;;;;11.65;61.78;100873.14;1761174;81;21031;-67
2021/10/03 06:33:15;;;;;;;21.77;16.75;;;;;;;11.73;61.07;100874.08;1735778;81;21037;-67
2021/10/03 06:35:41;;;;;;;23.67;18.67;;;;;;;11.83;61.29;100883.80;1729698;83;21083;-67
2021/10/03 06:38:07;;;;;;;26.73;18.70;;;;;;;12.02;61.40;100880.20;1729680;81;21089;-66
2021/10/03 06:40:34;;;;;;;;;;;;;;;12.29;61.21;100886.00;1758571;81;21631;-66
2021/10/03 06:43:00;;;;;;;22.70;16.45;;;;;;;12.55;59.98;100880.29;1759186;80;20491;-67
2021/10/03 06:45:27;;;;;;;22.42;16.30;;;;;;;12.73;59.48;100873.64;1761453;81;21057;-67
2021/10/03 06:47:53;;;;;;;23.05;17.23;;;;;;;12.91;59.00;100871.37;1760494;80;21539;-67
2021/10/03 06:50:19;;;;;;;22.17;17.35;;;;;;;13.12;58.96;100869.66;1737015;81;21008;-66
2021/10/03 06:52:46;;;;;;;23.20;17.48;;;;;;;13.38;58.23;100870.69;1755235;80;21061;-66
2021/10/03 06:55:13;;;;;;;25.50;17.98;;;;;;;13.66;57.89;100866.76;1761605;81;21038;-66
2021/10/03 06:57:41;;;;;;;23.45;17.40;;;;;;;13.93;57.40;100857.86;1758988;80;21026;-67
2021/10/03 07:00:08;;;;;;;;;;;;;;;14.19;56.79;100864.28;1727293;82;21482;-67
2021/10/03 07:02:35;;;;;;;23.22;16.70;;;;;;;14.43;55.75;100869.05;1743374;81;20111;-67
2021/10/03 07:05:01;;;;;;;23.87;15.75;;;;;;;14.55;55.14;100866.61;1743880;82;21007;-67
2021/10/03 07:07:28;;;;;;;23.75;15.38;;;;;;;14.74;54.10;100867.73;1742320;82;21516;-68
2021/10/03 07:09:55;;;;;;;21.35;16.17;;;;;;;14.96;54.44;100865.56;1743327;82;21563;-67
2021/10/03 07:12:21;;;;;;;;;;;;;;;15.27;53.67;100866.38;1745681;82;21529;-67
2021/10/03 07:14:48;;;;;;;20.57;14.90;;;;;;;15.52;52.66;100870.50;1740839;82;20119;-68
2021/10/03 07:17:14;;;;;;;22.35;16.90;;;;;;;15.58;51.86;100871.33;1740736;82;21051;-68
2021/10/03 07:19:40;;;;;;;;;;;;;;;15.66;52.15;100867.45;1743138;82;21063;-68
2021/10/03 07:22:08;;;;;;;20.57;14.18;;;;;;;15.90;51.37;100866.31;1742178;82;20158;-68
2021/10/03 07:24:35;;;;;;;22.05;15.65;;;;;;;15.99;51.36;100870.11;1741337;81;21105;-68
2021/10/03 07:27:02;;;;;;;22.10;15.08;;;;;;;16.25;51.24;100868.92;1740720;82;20986;-68
2021/10/03 07:29:29;;;;;;;22.40;15.13;;;;;;;16.58;50.42;100878.38;1741153;82;21041;-69
2021/10/03 07:31:56;;;;;;;18.00;14.40;;;;;;;16.89;49.81;100863.89;1737249;82;21022;-68
2021/10/03 07:34:22;;;;;;;18.25;14.45;;;;;;;17.17;48.18;100863.12;1732366;82;21062;-68
2021/10/03 07:36:48;;;;;;;19.05;13.30;;;;;;;17.32;47.67;100861.58;1742309;82;21498;-68
2021/10/03 07:39:15;;;;;;;15.93;12.28;;;;;;;17.54;47.12;100867.16;1740930;82;21071;-68
2021/10/03 07:41:42;;;;;;;16.60;12.95;;;;;;;17.72;46.34;100864.53;1740710;82;21035;-68
2021/10/03 07:44:09;;;;;;;17.50;12.18;;;;;;;17.97;45.72;100864.80;1740353;82;21601;-68
2021/10/03 07:46:35;;;;;;;18.95;13.25;;;;;;;18.16;44.86;100856.03;1740682;82;21010;-68
2021/10/03 07:49:01;;;;;;;16.52;12.98;;;;;;;18.21;44.15;100857.33;1740725;81;21088;-68
2021/10/03 07:51:28;;;;;;;15.23;12.40;;;;;;;18.28;44.50;100853.66;1740951;82;21050;-67
2021/10/03 07:53:54;;;;;;;18.02;11.48;;;;;;;18.39;43.63;100854.34;1738804;81;20990;-67
2021/10/03 07:56:20;;;;;;;15.28;11.63;;;;;;;18.49;42.87;100852.84;1743110;82;21003;-68
2021/10/03 07:58:47;;;;;;;21.95;19.20;;;;;;;18.53;43.85;100851.13;1742766;81;21597;-67
2021/10/03 08:01:13;;;;;;;14.83;11.38;;;;;;;18.78;43.30;100852.70;1736191;82;21023;-67
2021/10/03 08:03:41;;;;;;;17.48;11.40;;;;;;;19.03;42.43;100850.92;1721352;82;21119;-67
2021/10/03 08:06:07;;;;;;;14.53;10.20;;;;;;;19.01;39.93;100853.17;1738664;82;21041;-68
2021/10/03 08:08:34;;;;;;;15.75;12.15;;;;;;;18.85;40.97;100861.41;1747497;81;21066;-67
2021/10/03 08:11:00;;;;;;;9.98;7.70;;;;;;;19.08;40.03;100858.30;1748880;82;20994;-67
2021/10/03 08:13:27;;;;;;;11.97;9.08;;;;;;;19.28;38.33;100851.88;1747673;82;21572;-68
2021/10/03 08:15:54;;;;;;;14.75;10.13;;;;;;;19.49;37.56;100848.77;1747639;82;21042;-68
2021/10/03 08:18:20;;;;;;;16.15;9.30;;;;;;;19.67;38.67;100851.47;1747668;81;21000;-68
2021/10/03 08:20:47;;;;;;;13.18;8.60;;;;;;;19.95;37.32;100858.39;1745841;82;21533;-68
2021/10/03 08:23:14;;;;;;;12.78;8.53;;;;;;;20.06;35.33;100855.12;1747399;81;21084;-67
2021/10/03 08:25:41;;;;;;;12.30;8.88;;;;;;;20.10;33.66;100847.03;1748056;82;21051;-67
2021/10/03 08:28:07;;;;;;;12.85;9.80;;;;;;;19.94;34.95;100849.86;1747597;81;21031;-68
2021/10/03 08:30:33;;;;;;;11.35;7.28;;;;;;;20.12;35.64;100853.87;1747778;81;21012;-68
2021/10/03 08:33:00;;;;;;;7.20;5.05;;;;;;;20.42;34.64;100859.36;1749960;81;21520;-68
2021/10/03 08:35:26;;;;;;;8.13;5.58;;;;;;;20.61;32.49;100853.70;1749534;82;21319;-68
2021/10/03 08:37:52;;;;;;;7.47;4.60;;;;;;;20.70;32.07;100862.88;1747699;81;21595;-69
2021/10/03 08:40:18;;;;;;;5.75;3.95;;;;;;;20.85;32.17;100865.30;1744354;82;21022;-67
2021/10/03 08:42:45;;;;;;;6.42;3.65;;;;;;;20.86;30.53;100862.80;1735081;81;21529;-67
2021/10/03 08:45:11;;;;;;;6.80;4.15;;;;;;;20.88;30.81;100859.13;1747618;82;20998;-67
2021/10/03 08:47:41;;;;;;;4.83;3.52;;;;;;;21.16;30.85;100856.53;1744036;81;20987;-67
2021/10/03 08:50:10;;;;;;;7.85;4.97;;;;;;;21.42;30.80;100856.70;1733075;82;21061;-68
2021/10/03 08:52:39;;;;;;;8.15;4.20;;;;;;;21.76;30.70;100854.10;1747110;81;21022;-68
2021/10/03 08:55:08;;;;;;;5.42;3.35;;;;;;;22.09;29.47;100857.37;1721311;82;21063;-67
2021/10/03 08:57:35;;;;;;;6.70;4.45;;;;;;;22.20;28.12;100848.18;1746956;81;21504;-68
2021/10/03 09:00:09;;;;;;;7.03;5.42;;;;;;;22.27;27.54;100849.34;1746630;81;21030;-68
2021/10/03 09:03:07;;;;;;;11.00;7.95;;;;;;;22.27;27.54;100849.34;1747722;81;21037;-68
2021/10/03 09:05:39;;;;;;;11.25;8.35;;;;;;;22.33;27.29;100848.61;1747688;82;21030;-67
2021/10/03 09:08:12;;;;;;;9.30;6.95;;;;;;;22.27;26.45;100847.95;1746579;81;21035;-68
2021/10/03 09:11:03;;;;;;;34.25;30.10;;;;;;;22.08;26.23;100852.95;1747419;82;21635;-68
2021/10/03 09:13:35;;;;;;;9.40;6.87;;;;;;;21.68;25.94;100848.54;1747604;81;21013;-68
2021/10/03 09:16:22;;;;;;;14.25;9.23;;;;;;;21.17;27.01;100846.28;1745555;82;20975;-68
2021/10/03 09:18:58;;;;;;;11.45;7.08;;;;;;;21.17;27.01;100846.28;1740920;81;21094;-68
2021/10/03 09:21:38;;;;;;;6.60;4.20;;;;;;;21.30;26.92;100862.81;1716479;83;21050;-68
2021/10/03 09:24:20;;;;;;;21.65;13.48;;;;;;;21.39;26.78;100860.67;1716343;82;21070;-67
2021/10/03 09:27:02;;;;;;;17.05;10.43;;;;;;;21.33;26.81;100860.80;1729046;82;21036;-68
2021/10/03 09:29:33;;;;;;;9.63;5.20;;;;;;;21.33;27.40;100853.05;1716199;82;21087;-67
2021/10/03 09:32:14;;;;;;;8.28;4.87;;;;;;;21.48;26.14;100860.97;1739881;82;21551;-68
2021/10/03 09:34:49;;;;;;;18.87;13.15;;;;;;;21.27;26.19;100856.53;1747355;81;21105;-67
2021/10/03 09:37:32;;;;;;;22.02;16.07;;;;;;;21.07;26.92;100852.86;1728852;82;20983;-67
2021/10/03 09:40:18;;;;;;;9.73;7.20;;;;;;;20.90;27.04;100861.04;1747792;82;21019;-67
2021/10/03 09:43:03;;;;;;;25.95;19.40;;;;;;;20.59;27.83;100860.91;1729388;81;21055;-67
2021/10/03 09:45:33;;;;;;;27.02;19.27;;;;;;;20.27;28.09;100852.74;1747132;82;21026;-68
2021/10/03 09:48:06;;;;;;;24.98;18.70;;;;;;;19.97;29.08;100845.92;1742768;81;21068;-67
2021/10/03 09:50:38;;;;;;;26.42;18.40;;;;;;;19.80;28.97;100854.01;1732588;82;20987;-67
2021/10/03 09:53:04;;;;;;;17.23;11.53;;;;;;;19.46;29.02;100841.92;1747622;81;21050;-67
2021/10/03 09:55:32;;;;;;;10.93;7.15;;;;;;;18.94;29.95;100848.59;1747400;82;21497;-67
2021/10/03 09:57:58;;;;;;;9.03;4.42;;;;;;;18.52;30.67;100841.25;1747727;81;21027;-67
2021/10/03 10:00:26;;;;;;;;;;;;;;;18.20;30.99;100839.17;1738198;82;21529;-67
2021/10/03 10:02:52;;;;;;;8.43;4.60;;;;;;;17.92;32.44;100833.20;1692475;82;20133;-67
2021/10/03 10:05:24;;;;;;;8.30;5.10;;;;;;;17.72;32.57;100838.92;1693359;84;20976;-67
2021/10/03 10:07:52;;;;;;;8.70;4.00;;;;;;;17.60;32.78;100831.09;1709103;82;21129;-67
2021/10/03 10:10:18;;;;;;;6.97;4.00;;;;;;;17.51;32.63;100826.45;1745097;82;20975;-67
2021/10/03 10:12:56;;;;;;;9.48;4.60;;;;;;;17.41;33.18;100822.70;1738436;82;21122;-67
2021/10/03 10:15:24;;;;;;;6.58;4.15;;;;;;;17.24;33.60;100814.08;1731141;82;21042;-66
2021/10/03 10:17:51;;;;;;;8.28;4.45;;;;;;;17.19;34.76;100814.11;1745394;81;21062;-67
2021/10/03 10:20:27;;;;;;;10.00;4.90;;;;;;;17.20;34.75;100808.88;1747830;81;21541;-67
2021/10/03 10:23:05;;;;;;;8.83;4.92;;;;;;;17.21;34.68;100817.41;1705201;83;21058;-67
2021/10/03 10:25:50;;;;;;;16.75;11.10;;;;;;;17.19;34.86;100814.11;1665133;86;21561;-67
2021/10/03 10:28:33;;;;;;;12.20;7.60;;;;;;;17.14;34.68;100808.67;1720243;82;21070;-67
2021/10/03 10:31:07;;;;;;;7.87;5.35;;;;;;;17.07;35.59;100801.86;1741068;82;21607;-67
2021/10/03 10:34:01;;;;;;;11.65;7.22;;;;;;;17.06;35.38;100801.03;1740745;82;21039;-67
2021/10/03 10:36:39;;;;;;;15.88;6.53;;;;;;;16.96;35.05;100796.17;1740480;82;21106;-67
2021/10/03 10:39:14;;;;;;;10.28;5.25;;;;;;;16.89;35.72;100792.39;1739871;81;21039;-67
2021/10/03 10:41:46;;;;;;;8.88;6.03;;;;;;;16.86;35.94;100793.77;1700708;83;20987;-67
2021/10/03 10:44:31;;;;;;;10.60;4.95;;;;;;;16.86;36.57;100786.89;1714936;82;21523;-67
2021/10/03 10:47:17;;;;;;;7.55;5.00;;;;;;;16.86;35.83;100792.39;1748405;82;21533;-67
2021/10/03 10:49:54;;;;;;;10.72;5.78;;;;;;;16.80;36.01;100788.59;1738695;82;21031;-67
2021/10/03 10:52:25;;;;;;;12.47;6.40;;;;;;;16.67;36.22;100781.84;1736237;82;21047;-68
2021/10/03 10:55:21;;;;;;;11.40;5.92;;;;;;;16.64;37.07;100783.79;1741038;82;21035;-67
2021/10/03 10:57:57;;;;;;;10.85;6.05;;;;;;;16.62;37.37;100778.29;1726839;82;21149;-68
2021/10/03 11:00:26;;;;;;;12.35;6.03;;;;;;;16.63;38.08;100781.31;1706565;82;20988;-67
2021/10/03 11:03:02;;;;;;;12.55;6.03;;;;;;;16.69;38.02;100777.41;1760904;80;21058;-68
2021/10/03 11:05:45;;;;;;;10.80;6.10;;;;;;;16.74;38.16;100778.75;1761105;81;21545;-67
2021/10/03 11:08:17;;;;;;;12.80;6.55;;;;;;;16.79;37.82;100767.73;1760554;80;21072;-67
2021/10/03 11:11:09;;;;;;;10.45;6.55;;;;;;;16.84;38.32;100773.17;1761044;81;21029;-68
2021/10/03 11:13:56;;;;;;;9.38;5.50;;;;;;;16.85;37.76;100772.06;1761119;80;21039;-67
2021/10/03 11:16:36;;;;;;;;;;;;;;;16.80;37.95;100765.22;1763200;81;21005;-67
2021/10/03 11:19:14;;;;;;;10.58;5.10;;;;;;;16.80;38.41;100767.97;1760163;80;20152;-67
2021/10/03 11:21:47;;;;;;;11.48;5.72;;;;;;;16.68;37.42;100770.29;1754555;81;21027;-67
2021/10/03 11:24:26;;;;;;;8.05;4.60;;;;;;;16.58;37.82;100767.62;1756953;80;21034;-66
2021/10/03 11:27:11;;;;;;;7.42;5.00;;;;;;;16.56;36.99;100767.90;1761444;81;20993;-66
2021/10/03 11:29:43;;;;;;;10.82;5.40;;;;;;;16.56;37.29;100768.45;1760978;80;21025;-66
2021/10/03 11:32:14;;;;;;;8.65;4.60;;;;;;;16.60;38.04;100767.59;1761279;81;21021;-66
2021/10/03 11:34:53;;;;;;;6.50;4.40;;;;;;;16.66;38.42;100764.23;1761258;80;21077;-66
2021/10/03 11:37:35;;;;;;;8.08;4.50;;;;;;;16.68;37.86;100757.37;1760329;81;21076;-66